Time;durP1;ratioP1;P1;durP2;ratioP2;P2;SDS_P1;SDS_P2;PMS_P1;PMS_P2;Temp;Humidity;BMP_temperature;BMP_pressure;BME280_temperature;BME280_humidity;BME280_pressure;Samples;Min_cycle;Max_cycle;Signal;HPM_P1;HPM_P2
2022/07/26 00:00:33;;;;;;;5.47;4.60;;;18.80;99.90;;;;;;5111018;28;20844;-75
2022/07/26 00:03:21;;;;;;;7.53;4.93;;;18.80;99.90;;;;;;5107645;27;20599;-74
2022/07/26 00:06:10;;;;;;;8.43;4.70;;;18.80;99.90;;;;;;5111020;27;20572;-75
2022/07/26 00:08:58;;;;;;;7.10;4.90;;;18.80;99.90;;;;;;5106759;27;20475;-74
2022/07/26 00:11:46;;;;;;;7.73;4.70;;;18.80;99.90;;;;;;5103987;28;20561;-75
2022/07/26 00:14:35;;;;;;;8.30;4.60;;;18.80;99.90;;;;;;5109261;27;20460;-74
2022/07/26 00:17:25;;;;;;;7.60;4.30;;;18.80;99.90;;;;;;5110732;28;20540;-74
2022/07/26 00:20:13;;;;;;;6.80;4.70;;;18.80;99.90;;;;;;5121412;27;20955;-74
2022/07/26 00:23:02;;;;;;;5.73;4.50;;;18.70;99.90;;;;;;5103514;28;20455;-74
2022/07/26 00:25:50;;;;;;;4.37;3.97;;;18.70;99.90;;;;;;5111213;27;20581;-74
2022/07/26 00:28:41;;;;;;;3.83;3.53;;;18.70;99.90;;;;;;5106115;28;20913;-74
2022/07/26 00:31:29;;;;;;;6.23;4.40;;;18.70;99.90;;;;;;5103023;28;21139;-74
2022/07/26 00:34:19;;;;;;;5.57;4.03;;;18.70;99.90;;;;;;5109798;28;20543;-74
2022/07/26 00:37:07;;;;;;;5.70;3.80;;;18.70;99.90;;;;;;5120283;27;21073;-76
2022/07/26 00:39:55;;;;;;;5.83;3.90;;;18.60;99.90;;;;;;5108449;28;20941;-74
2022/07/26 00:42:44;;;;;;;4.93;3.90;;;18.60;99.90;;;;;;5111555;27;21961;-77
2022/07/26 00:45:33;;;;;;;4.23;3.80;;;18.60;99.90;;;;;;5103772;28;20560;-74
2022/07/26 00:48:21;;;;;;;5.47;3.67;;;18.60;99.90;;;;;;5109434;28;20519;-74
2022/07/26 00:51:11;;;;;;;5.50;3.53;;;18.60;99.90;;;;;;5112084;27;20557;-75
2022/07/26 00:53:59;;;;;;;4.63;4.13;;;18.60;99.90;;;;;;5106697;27;20463;-74
2022/07/26 00:56:53;;;;;;;4.47;3.40;;;18.50;99.90;;;;;;5120301;27;20908;-74
2022/07/26 00:59:43;;;;;;;4.87;4.20;;;18.60;99.90;;;;;;5108397;27;20469;-74
2022/07/26 01:02:31;;;;;;;3.87;3.30;;;18.50;99.90;;;;;;5105938;28;20437;-75
2022/07/26 01:05:23;;;;;;;4.80;3.40;;;18.50;99.90;;;;;;5115573;27;20471;-75
2022/07/26 01:08:13;;;;;;;4.70;3.37;;;18.50;99.90;;;;;;5098511;28;21034;-75
2022/07/26 01:11:01;;;;;;;6.50;3.80;;;18.50;99.90;;;;;;5104106;27;20557;-74
2022/07/26 01:13:50;;;;;;;4.07;3.33;;;18.40;99.90;;;;;;5104222;28;20958;-74
2022/07/26 01:16:40;;;;;;;5.23;3.70;;;18.40;99.90;;;;;;5106573;27;20947;-74
2022/07/26 01:19:28;;;;;;;5.97;3.30;;;18.40;99.90;;;;;;5106722;27;20452;-74
2022/07/26 01:22:18;;;;;;;5.53;3.90;;;18.40;99.90;;;;;;5108678;28;20468;-74
2022/07/26 01:25:09;;;;;;;6.13;3.20;;;18.40;99.90;;;;;;5103130;28;20448;-74
2022/07/26 01:27:58;;;;;;;4.90;3.20;;;18.30;99.90;;;;;;5109673;28;20504;-75
2022/07/26 01:30:48;;;;;;;5.67;3.30;;;18.30;99.90;;;;;;5096974;28;20483;-75
2022/07/26 01:33:37;;;;;;;7.77;3.70;;;18.30;99.90;;;;;;5082562;22;20503;-75
2022/07/26 01:36:25;;;;;;;3.70;3.30;;;18.30;99.90;;;;;;5049030;28;20446;-75
2022/07/26 01:39:15;;;;;;;3.87;3.47;;;18.30;99.90;;;;;;5044322;28;20526;-74
2022/07/26 01:42:06;;;;;;;6.27;3.70;;;18.20;99.90;;;;;;5043399;28;20455;-74
2022/07/26 01:44:54;;;;;;;8.23;3.90;;;18.20;99.90;;;;;;5047420;28;20891;-76
2022/07/26 01:47:43;;;;;;;4.23;3.63;;;18.10;99.90;;;;;;5037412;28;20450;-74
2022/07/26 01:50:31;;;;;;;5.37;3.70;;;18.10;99.90;;;;;;5045950;28;20588;-74
2022/07/26 01:53:19;;;;;;;5.90;3.87;;;18.10;99.90;;;;;;5043659;28;20555;-74
2022/07/26 01:56:09;;;;;;;7.03;4.00;;;18.10;99.90;;;;;;5045757;28;20509;-74
2022/07/26 01:58:58;;;;;;;5.17;3.63;;;18.10;99.90;;;;;;5049909;28;20454;-74
2022/07/26 02:01:46;;;;;;;6.40;3.83;;;18.00;99.90;;;;;;5046917;28;20469;-75
2022/07/26 02:07:43;;;;;;;4.50;3.40;;;18.00;99.90;;;;;;5055177;28;20568;-75
2022/07/26 02:13:41;;;;;;;5.03;3.20;;;18.00;99.90;;;;;;5046738;28;20481;-75
2022/07/26 02:16:29;;;;;;;4.73;4.17;;;18.00;99.90;;;;;;5048007;28;20439;-75
2022/07/26 02:19:17;;;;;;;10.40;4.23;;;18.00;99.90;;;;;;5043059;28;20449;-75
2022/07/26 02:22:09;;;;;;;6.40;3.17;;;18.00;99.90;;;;;;5046289;28;20587;-75
2022/07/26 02:24:57;;;;;;;4.30;3.00;;;18.00;99.90;;;;;;5051767;28;20769;-75
2022/07/26 02:27:52;;;;;;;8.50;3.37;;;18.00;99.90;;;;;;5051709;28;20492;-75
2022/07/26 02:30:43;;;;;;;9.53;3.80;;;18.00;99.90;;;;;;5044938;28;20548;-75
2022/07/26 02:33:31;;;;;;;6.00;3.50;;;18.00;99.90;;;;;;5055156;28;20486;-75
2022/07/26 02:36:20;;;;;;;6.93;3.43;;;17.90;99.90;;;;;;5051873;28;20817;-75
2022/07/26 02:39:11;;;;;;;6.43;3.73;;;17.90;99.90;;;;;;5051231;28;20841;-75
2022/07/26 02:42:01;;;;;;;6.47;3.40;;;17.90;99.90;;;;;;5049820;28;20591;-75
2022/07/26 02:44:49;;;;;;;6.70;3.50;;;17.80;99.90;;;;;;5049044;28;20541;-75
2022/07/26 02:47:47;;;;;;;4.50;3.07;;;17.80;99.90;;;;;;5045506;28;20469;-75
2022/07/26 02:50:38;;;;;;;5.93;3.33;;;17.80;99.90;;;;;;5048152;28;20466;-75
2022/07/26 02:53:27;;;;;;;7.37;3.17;;;17.80;99.90;;;;;;5055168;28;20541;-75
2022/07/26 02:56:15;;;;;;;5.80;3.27;;;17.80;99.90;;;;;;5048430;28;20530;-75
2022/07/26 02:59:03;;;;;;;7.10;3.17;;;17.70;99.90;;;;;;5061371;28;20532;-75
2022/07/26 03:01:52;;;;;;;5.53;3.30;;;17.70;99.90;;;;;;5051142;28;20493;-75
2022/07/26 03:04:41;;;;;;;9.10;3.70;;;17.70;99.90;;;;;;5045219;28;20476;-75
2022/07/26 03:07:31;;;;;;;6.63;3.63;;;17.70;99.90;;;;;;5046893;28;20474;-75
2022/07/26 03:10:19;;;;;;;7.13;3.50;;;17.70;99.90;;;;;;5052698;28;20537;-75
2022/07/26 03:13:08;;;;;;;8.00;3.93;;;17.70;99.90;;;;;;5049476;28;20511;-75
2022/07/26 03:15:56;;;;;;;6.63;3.77;;;17.70;99.90;;;;;;5047295;28;20910;-75
2022/07/26 03:18:44;;;;;;;10.17;4.33;;;17.80;99.90;;;;;;5047848;28;20440;-75
2022/07/26 03:21:35;;;;;;;7.97;3.80;;;17.80;99.90;;;;;;5055582;28;20449;-75
2022/07/26 03:24:23;;;;;;;6.30;3.60;;;17.80;99.90;;;;;;5050737;28;20950;-75
2022/07/26 03:27:12;;;;;;;6.33;3.53;;;17.80;99.90;;;;;;5058096;28;20548;-75
2022/07/26 03:30:00;;;;;;;6.23;4.07;;;17.80;99.90;;;;;;5049492;28;20450;-75
2022/07/26 03:32:49;;;;;;;6.03;3.40;;;17.80;99.90;;;;;;5056197;28;21015;-75
2022/07/26 03:35:37;;;;;;;7.97;4.27;;;17.80;99.90;;;;;;5051455;28;20462;-75
2022/07/26 03:38:29;;;;;;;6.70;3.90;;;17.70;99.90;;;;;;5056251;28;21056;-75
2022/07/26 03:41:17;;;;;;;6.13;3.63;;;17.80;99.90;;;;;;5043521;28;20538;-75
2022/07/26 03:44:06;;;;;;;6.90;3.67;;;17.80;99.90;;;;;;5051509;28;20469;-75
2022/07/26 03:46:55;;;;;;;9.60;3.83;;;17.80;99.90;;;;;;5041043;28;20474;-75
2022/07/26 03:49:43;;;;;;;8.67;4.10;;;17.80;99.90;;;;;;5046753;28;20485;-75
2022/07/26 03:52:32;;;;;;;8.80;4.20;;;17.80;99.90;;;;;;5048162;28;20497;-75
2022/07/26 03:58:27;;;;;;;8.57;3.77;;;17.80;99.90;;;;;;5034731;28;20512;-75
2022/07/26 04:01:17;;;;;;;4.50;3.20;;;17.80;99.90;;;;;;5051200;28;20584;-75
2022/07/26 04:04:05;;;;;;;10.10;3.97;;;17.90;99.90;;;;;;5052753;28;20471;-75
2022/07/26 04:06:56;;;;;;;7.73;3.40;;;17.90;99.90;;;;;;5056500;28;20471;-75
2022/07/26 04:09:50;;;;;;;9.87;3.77;;;17.90;99.90;;;;;;5053661;28;20975;-75
2022/07/26 04:12:39;;;;;;;5.90;3.67;;;17.90;99.90;;;;;;5053635;28;21052;-75
2022/07/26 04:15:28;;;;;;;6.03;3.60;;;17.90;99.90;;;;;;5044532;28;20536;-75
2022/07/26 04:18:16;;;;;;;7.27;4.00;;;17.90;99.90;;;;;;5050689;28;20538;-75
2022/07/26 04:21:05;;;;;;;9.60;4.13;;;17.90;99.90;;;;;;5051359;28;20518;-75
2022/07/26 04:23:53;;;;;;;8.80;3.80;;;17.90;99.90;;;;;;5049621;28;20854;-75
2022/07/26 04:26:41;;;;;;;8.67;3.90;;;17.90;99.90;;;;;;5047401;28;20835;-75
2022/07/26 04:29:31;;;;;;;7.50;4.00;;;17.90;99.90;;;;;;5045138;28;20489;-75
2022/07/26 04:32:20;;;;;;;7.90;4.47;;;18.00;99.90;;;;;;5045387;28;20585;-75
2022/07/26 04:35:09;;;;;;;10.10;4.30;;;17.90;99.90;;;;;;5055236;28;20558;-75
2022/07/26 04:37:57;;;;;;;6.60;3.97;;;18.00;99.90;;;;;;5050784;28;20478;-75
2022/07/26 04:40:46;;;;;;;8.33;4.30;;;18.00;99.90;;;;;;5047276;28;20597;-75
2022/07/26 04:43:36;;;;;;;7.90;4.20;;;17.90;99.90;;;;;;5059261;28;20478;-75
2022/07/26 04:46:28;;;;;;;8.83;4.90;;;17.90;99.90;;;;;;5048082;28;20505;-75
2022/07/26 04:49:17;;;;;;;6.10;3.80;;;17.90;99.90;;;;;;5027151;28;20451;-75
2022/07/26 04:52:05;;;;;;;3.60;3.27;;;17.80;99.90;;;;;;5050756;28;20450;-75
2022/07/26 04:54:54;;;;;;;5.30;3.23;;;17.70;99.90;;;;;;5049879;28;21042;-75
2022/07/26 04:57:43;;;;;;;4.00;3.30;;;17.60;99.90;;;;;;5051759;28;20540;-75
2022/07/26 05:00:35;;;;;;;3.83;3.10;;;17.60;99.90;;;;;;5043165;28;20882;-75
2022/07/26 05:03:48;;;;;;;3.40;3.10;;;17.60;99.90;;;;;;5045994;28;20494;-75
2022/07/26 05:06:36;;;;;;;4.60;4.20;;;17.60;99.90;;;;;;5045680;28;20587;-75
2022/07/26 05:09:25;;;;;;;3.60;3.30;;;17.50;99.90;;;;;;5052010;28;20491;-75
2022/07/26 05:12:14;;;;;;;4.30;3.97;;;17.50;99.90;;;;;;5050808;28;20534;-75
2022/07/26 05:15:04;;;;;;;4.87;3.43;;;17.50;99.90;;;;;;5044269;28;20935;-75
2022/07/26 05:18:03;;;;;;;4.17;3.47;;;17.40;99.90;;;;;;5056270;28;20457;-75
2022/07/26 05:20:56;;;;;;;4.63;3.90;;;17.40;99.90;;;;;;5046723;28;20479;-75
2022/07/26 05:23:45;;;;;;;3.23;2.87;;;17.40;99.90;;;;;;5041047;28;20977;-75
2022/07/26 05:26:33;;;;;;;3.43;3.13;;;17.40;99.90;;;;;;5052818;28;20454;-75
2022/07/26 05:29:21;;;;;;;4.03;3.23;;;17.40;99.90;;;;;;5046710;28;20552;-75
2022/07/26 05:32:18;;;;;;;3.53;3.23;;;17.40;99.90;;;;;;5051355;28;20537;-75
2022/07/26 05:35:08;;;;;;;3.77;3.20;;;17.40;99.90;;;;;;5049037;28;21052;-75
2022/07/26 05:37:57;;;;;;;3.90;3.30;;;17.40;99.90;;;;;;5049023;28;20521;-75
2022/07/26 05:40:46;;;;;;;3.73;3.30;;;17.40;99.90;;;;;;5047386;28;20810;-75
2022/07/26 05:43:38;;;;;;;3.37;3.13;;;17.40;99.90;;;;;;5047771;28;20532;-75
2022/07/26 05:46:30;;;;;;;3.80;3.27;;;17.40;99.90;;;;;;5046595;28;20447;-74
2022/07/26 05:49:19;;;;;;;4.13;3.40;;;17.40;99.90;;;;;;5046140;28;21003;-75
2022/07/26 05:52:07;;;;;;;3.97;3.33;;;17.40;99.90;;;;;;5044277;28;20989;-75
2022/07/26 05:54:57;;;;;;;3.87;3.20;;;17.40;99.90;;;;;;5045920;28;20451;-75
2022/07/26 05:57:47;;;;;;;5.90;3.30;;;17.40;99.90;;;;;;5051678;28;20459;-74
2022/07/26 06:00:36;;;;;;;3.97;3.50;;;17.40;99.90;;;;;;5050815;28;21096;-74
2022/07/26 06:03:25;;;;;;;3.83;3.37;;;17.40;99.90;;;;;;5037068;28;20886;-74
2022/07/26 06:06:15;;;;;;;4.30;3.70;;;17.40;99.90;;;;;;5025043;28;21333;-74
2022/07/26 06:09:03;;;;;;;3.90;3.60;;;17.40;99.90;;;;;;5053981;28;20467;-74
2022/07/26 06:11:53;;;;;;;4.97;3.67;;;17.40;99.90;;;;;;5047022;28;20596;-74
2022/07/26 06:14:42;;;;;;;5.40;3.87;;;17.50;99.90;;;;;;5050113;28;20488;-75
2022/07/26 06:17:30;;;;;;;4.53;4.10;;;17.50;99.90;;;;;;5055996;28;20556;-75
2022/07/26 06:20:19;;;;;;;5.97;3.60;;;17.60;99.90;;;;;;5045647;28;20454;-75
2022/07/26 06:23:08;;;;;;;4.97;3.80;;;17.60;99.90;;;;;;5045600;28;20491;-74
2022/07/26 06:25:56;;;;;;;3.50;3.30;;;17.60;99.90;;;;;;5047360;28;20450;-75
2022/07/26 06:28:49;;;;;;;5.03;4.20;;;17.60;99.90;;;;;;5053737;28;20476;-75
2022/07/26 06:31:38;;;;;;;3.90;3.60;;;17.60;99.90;;;;;;5047231;28;20506;-75
2022/07/26 06:34:27;;;;;;;6.97;3.73;;;17.60;99.90;;;;;;5042813;28;20485;-75
2022/07/26 06:37:15;;;;;;;4.53;4.10;;;17.60;99.90;;;;;;5044561;28;20533;-75
2022/07/26 06:40:06;;;;;;;3.77;3.33;;;17.70;99.90;;;;;;5050187;28;20563;-75
2022/07/26 06:42:54;;;;;;;3.90;3.50;;;17.70;99.90;;;;;;5044878;28;20561;-75
2022/07/26 06:45:44;;;;;;;3.73;3.40;;;17.70;99.90;;;;;;5043501;28;20458;-75
2022/07/26 06:48:32;;;;;;;4.27;3.87;;;17.70;99.90;;;;;;5041636;28;20832;-75
2022/07/26 06:51:22;;;;;;;4.30;3.43;;;17.80;99.90;;;;;;5043138;28;20447;-75
2022/07/26 06:54:11;;;;;;;3.67;3.30;;;17.80;99.90;;;;;;5044778;28;20532;-74
2022/07/26 06:56:59;;;;;;;4.70;3.37;;;17.80;99.90;;;;;;5054105;28;20453;-75
2022/07/26 06:59:48;;;;;;;2.30;1.77;;;17.70;99.90;;;;;;5045873;28;20564;-75
2022/07/26 07:02:37;;;;;;;1.90;1.80;;;17.60;99.90;;;;;;5043431;28;20528;-75
2022/07/26 07:05:26;;;;;;;3.70;2.13;;;17.60;99.90;;;;;;5048426;28;20537;-75
2022/07/26 07:08:20;;;;;;;4.87;2.00;;;17.60;99.90;;;;;;5044153;28;20997;-75
2022/07/26 07:11:09;;;;;;;2.87;1.67;;;17.60;99.90;;;;;;5054285;28;20464;-75
2022/07/26 07:13:58;;;;;;;2.43;1.60;;;17.50;99.90;;;;;;5048629;28;20553;-75
2022/07/26 07:16:46;;;;;;;2.90;1.77;;;17.50;99.90;;;;;;5049420;28;20512;-75
2022/07/26 07:19:36;;;;;;;2.37;1.40;;;17.40;99.90;;;;;;5046983;28;20973;-75
2022/07/26 07:22:25;;;;;;;2.13;1.70;;;17.50;99.90;;;;;;5053708;28;20450;-75
2022/07/26 07:25:13;;;;;;;2.17;1.60;;;17.50;99.90;;;;;;5045471;28;20809;-75
2022/07/26 07:28:02;;;;;;;2.90;2.10;;;17.50;99.90;;;;;;5055247;28;20956;-75
2022/07/26 07:30:51;;;;;;;3.63;1.63;;;17.60;99.90;;;;;;5049603;28;20446;-75
2022/07/26 07:33:41;;;;;;;4.27;1.43;;;17.60;99.90;;;;;;5043497;22;20575;-72
2022/07/26 07:36:42;;;;;;;2.20;1.40;;;17.70;99.90;;;;;;5048693;28;20465;-73
2022/07/26 07:39:30;;;;;;;3.73;1.43;;;17.70;99.90;;;;;;5053233;28;20859;-73
2022/07/26 07:42:26;;;;;;;1.93;1.33;;;17.80;99.90;;;;;;5048606;28;20523;-73
2022/07/26 07:45:14;;;;;;;1.70;1.00;;;17.70;99.90;;;;;;5042095;28;20486;-73
2022/07/26 07:48:03;;;;;;;1.73;0.93;;;17.50;99.90;;;;;;5035525;28;20589;-71
2022/07/26 07:50:52;;;;;;;2.70;1.07;;;17.50;99.90;;;;;;5042928;28;21023;-73
2022/07/26 07:53:41;;;;;;;2.77;0.87;;;17.50;99.90;;;;;;5037048;28;20478;-72
2022/07/26 07:56:30;;;;;;;1.47;0.90;;;17.50;99.90;;;;;;5044043;28;20467;-73
2022/07/26 07:59:18;;;;;;;1.47;0.90;;;17.50;99.90;;;;;;5036054;28;20532;-72
2022/07/26 08:02:11;;;;;;;2.60;1.10;;;17.60;99.90;;;;;;5044947;28;20466;-72
2022/07/26 08:05:03;;;;;;;3.83;1.20;;;17.60;99.90;;;;;;5044496;28;20520;-73
2022/07/26 08:08:03;;;;;;;3.00;1.00;;;17.70;99.90;;;;;;5037726;28;20457;-73
2022/07/26 08:10:57;;;;;;;2.40;1.20;;;17.70;99.90;;;;;;5041346;28;21488;-72
2022/07/26 08:13:46;;;;;;;4.83;1.17;;;17.80;99.90;;;;;;5026913;28;21050;-74
2022/07/26 08:16:35;;;;;;;1.90;1.10;;;17.80;99.90;;;;;;5041211;28;20964;-72
2022/07/26 08:19:24;;;;;;;3.23;1.10;;;17.80;99.90;;;;;;5036543;28;20483;-72
2022/07/26 08:22:17;;;;;;;2.13;0.90;;;17.80;99.90;;;;;;5041643;28;20804;-72
2022/07/26 08:25:09;;;;;;;3.80;1.00;;;17.80;99.90;;;;;;5042810;28;20467;-73
2022/07/26 08:27:59;;;;;;;3.60;0.90;;;17.90;99.90;;;;;;5037081;28;20494;-72
2022/07/26 08:30:50;;;;;;;3.37;1.03;;;17.90;99.90;;;;;;5041524;28;20505;-72
2022/07/26 08:33:39;;;;;;;3.17;1.07;;;18.00;99.90;;;;;;5041245;28;20500;-73
2022/07/26 08:36:30;;;;;;;5.97;1.37;;;18.00;99.90;;;;;;5037613;28;20993;-75
2022/07/26 08:39:20;;;;;;;2.70;1.10;;;18.00;99.90;;;;;;5038856;28;20475;-73
2022/07/26 08:42:14;;;;;;;2.57;0.90;;;17.90;99.90;;;;;;5037645;28;20518;-72
2022/07/26 08:45:04;;;;;;;2.50;0.77;;;17.80;99.90;;;;;;5038389;28;20467;-73
2022/07/26 08:47:54;;;;;;;2.40;0.93;;;17.80;99.90;;;;;;5037437;28;20490;-73
2022/07/26 08:51:08;;;;;;;1.10;0.60;;;17.80;99.90;;;;;;5042201;28;20476;-73
2022/07/26 08:54:00;;;;;;;0.63;0.63;;;17.80;99.90;;;;;;5040880;28;20481;-73
2022/07/26 08:56:55;;;;;;;1.93;0.90;;;17.80;99.90;;;;;;5038825;28;20456;-73
2022/07/26 08:59:43;;;;;;;2.00;1.00;;;17.80;99.90;;;;;;5042857;28;20475;-72
2022/07/26 09:02:40;;;;;;;1.87;0.70;;;17.90;99.90;;;;;;5044811;28;20643;-73
2022/07/26 09:05:30;;;;;;;1.57;0.80;;;17.90;99.90;;;;;;5034811;28;20475;-73
2022/07/26 09:08:26;;;;;;;0.97;0.87;;;17.90;99.90;;;;;;5041430;28;20801;-73
2022/07/26 09:11:32;;;;;;;1.93;0.90;;;18.00;99.90;;;;;;5036293;28;20479;-73
2022/07/26 09:14:21;;;;;;;1.77;0.93;;;17.90;99.90;;;;;;5041427;28;20467;-72
2022/07/26 09:17:09;;;;;;;2.60;1.00;;;17.80;99.90;;;;;;5039266;28;20531;-73
2022/07/26 09:20:09;;;;;;;1.53;0.70;;;17.80;99.90;;;;;;5040091;28;20473;-73
2022/07/26 09:23:02;;;;;;;2.20;1.00;;;17.70;99.90;;;;;;5037025;28;20570;-72
2022/07/26 09:25:50;;;;;;;2.30;1.10;;;17.70;99.90;;;;;;5037732;28;20502;-73
2022/07/26 09:28:39;;;;;;;5.80;1.30;;;17.70;99.90;;;;;;5041681;28;20512;-72
2022/07/26 09:31:33;;;;;;;2.37;1.03;;;17.80;99.90;;;;;;5036749;28;20966;-73
2022/07/26 09:34:25;;;;;;;1.00;0.90;;;17.80;99.90;;;;;;5042172;28;20486;-72
2022/07/26 09:37:16;;;;;;;3.20;0.97;;;17.90;99.90;;;;;;5038525;28;20478;-73
2022/07/26 09:40:07;;;;;;;2.40;0.77;;;18.00;99.90;;;;;;5045947;28;20447;-73
2022/07/26 09:42:57;;;;;;;1.90;1.00;;;18.00;99.90;;;;;;5035509;28;20553;-72
2022/07/26 09:45:45;;;;;;;4.93;1.40;;;18.10;99.90;;;;;;5045455;28;20462;-72
2022/07/26 09:48:37;;;;;;;2.63;1.10;;;18.00;99.90;;;;;;5040156;28;20497;-72
2022/07/26 09:51:47;;;;;;;2.67;1.10;;;18.10;99.90;;;;;;5034158;28;20544;-73
2022/07/26 09:54:37;;;;;;;3.33;0.90;;;18.10;99.90;;;;;;5036968;28;20491;-72
2022/07/26 09:57:26;;;;;;;3.60;0.90;;;18.20;99.90;;;;;;5038974;28;20461;-73
2022/07/26 10:00:15;;;;;;;4.50;1.00;;;18.20;99.90;;;;;;5035633;28;20482;-73
2022/07/26 10:03:04;;;;;;;4.00;1.10;;;18.20;99.90;;;;;;5047997;28;20896;-73
2022/07/26 10:05:53;;;;;;;2.20;1.17;;;18.30;99.90;;;;;;5035282;28;20565;-73
2022/07/26 10:08:42;;;;;;;2.43;1.00;;;18.30;99.90;;;;;;5038745;28;20482;-73
2022/07/26 10:11:38;;;;;;;2.73;0.90;;;18.40;99.90;;;;;;5040025;28;20504;-73
2022/07/26 10:14:41;;;;;;;2.87;1.03;;;18.40;99.90;;;;;;5038003;28;20487;-72
2022/07/26 10:17:41;;;;;;;1.20;0.80;;;18.50;99.90;;;;;;5040461;28;20455;-72
2022/07/26 10:20:47;;;;;;;2.37;0.80;;;18.70;99.90;;;;;;5038362;28;20542;-73
2022/07/26 10:23:41;;;;;;;2.00;0.80;;;18.80;99.90;;;;;;5035192;28;20991;-73
2022/07/26 10:26:41;;;;;;;4.67;1.20;;;18.90;99.90;;;;;;5039026;28;20561;-73
2022/07/26 10:29:31;;;;;;;1.20;0.87;;;18.90;99.90;;;;;;5041138;28;20453;-72
2022/07/26 10:32:20;;;;;;;2.30;1.00;;;18.90;99.90;;;;;;5035891;28;20454;-72
2022/07/26 10:35:30;;;;;;;3.03;1.10;;;19.00;99.90;;;;;;5039824;28;20968;-73
2022/07/26 10:38:24;;;;;;;2.27;1.10;;;19.00;99.90;;;;;;5037170;28;20451;-72
2022/07/26 10:41:13;;;;;;;3.57;1.00;;;19.20;99.90;;;;;;5038470;28;20799;-72
2022/07/26 10:44:24;;;;;;;1.63;1.00;;;19.30;99.90;;;;;;5048078;28;20620;-72
2022/07/26 10:47:18;;;;;;;2.40;0.80;;;19.20;99.90;;;;;;5036483;28;20455;-73
2022/07/26 10:50:07;;;;;;;1.93;0.80;;;19.40;99.90;;;;;;5044336;28;20471;-72
2022/07/26 10:52:58;;;;;;;1.90;0.90;;;19.40;99.90;;;;;;5039257;28;20479;-73
2022/07/26 10:55:49;;;;;;;2.20;1.20;;;19.40;99.90;;;;;;5045766;28;20460;-74
2022/07/26 10:58:43;;;;;;;1.90;1.20;;;19.40;99.90;;;;;;5049098;28;20537;-73
2022/07/26 11:01:37;;;;;;;2.33;1.00;;;19.40;99.90;;;;;;5038974;28;20541;-73
2022/07/26 11:04:26;;;;;;;2.30;0.87;;;19.30;99.90;;;;;;5045012;28;20882;-73
2022/07/26 11:07:14;;;;;;;2.90;0.90;;;19.40;99.90;;;;;;5035373;28;20504;-73
2022/07/26 11:10:03;;;;;;;5.13;1.20;;;19.40;99.90;;;;;;5038834;28;20546;-73
2022/07/26 11:13:09;;;;;;;4.07;1.00;;;19.30;99.90;;;;;;5043643;28;20554;-73
2022/07/26 11:16:00;;;;;;;3.40;1.37;;;19.20;99.90;;;;;;5044545;28;20596;-73
2022/07/26 11:18:51;;;;;;;7.47;1.40;;;19.10;99.90;;;;;;5037559;28;21042;-73
2022/07/26 11:21:40;;;;;;;2.83;1.00;;;19.10;99.90;;;;;;5047737;28;20443;-72
2022/07/26 11:24:31;;;;;;;3.63;1.37;;;19.10;99.90;;;;;;5040429;28;20469;-72
2022/07/26 11:27:19;;;;;;;4.47;2.00;;;19.20;99.90;;;;;;5041912;28;20538;-73
2022/07/26 11:30:09;;;;;;;2.47;1.47;;;19.30;99.90;;;;;;5036477;28;20447;-73
2022/07/26 11:32:58;;;;;;;5.23;1.37;;;19.50;99.90;;;;;;5038925;28;20448;-72
2022/07/26 11:35:51;;;;;;;7.00;1.60;;;19.50;99.90;;;;;;5042371;28;20470;-73
2022/07/26 11:38:48;;;;;;;3.70;1.83;;;19.70;99.90;;;;;;5041934;28;21018;-73
2022/07/26 11:41:36;;;;;;;4.00;1.60;;;19.80;99.90;;;;;;5045392;28;20461;-74
2022/07/26 11:44:26;;;;;;;4.50;2.30;;;19.80;99.90;;;;;;5039542;28;21987;-73
2022/07/26 11:47:18;;;;;;;3.37;1.50;;;19.80;99.90;;;;;;5037174;28;20544;-72
2022/07/26 11:50:07;;;;;;;4.70;1.40;;;19.70;99.90;;;;;;5045818;28;20467;-72
2022/07/26 11:53:22;;;;;;;3.70;1.97;;;19.60;99.90;;;;;;5042637;28;20978;-72
2022/07/26 11:56:14;;;;;;;4.40;1.70;;;19.80;99.90;;;;;;5038497;28;20446;-72
2022/07/26 11:59:03;;;;;;;4.67;1.53;;;19.90;99.90;;;;;;5046121;28;20541;-72
2022/07/26 12:01:52;;;;;;;4.53;1.80;;;20.00;99.90;;;;;;5045893;28;20600;-72
2022/07/26 12:04:42;;;;;;;5.23;1.87;;;20.10;99.90;;;;;;5040255;28;20545;-72
2022/07/26 12:07:31;;;;;;;5.67;1.57;;;20.20;99.90;;;;;;5042748;28;20470;-72
2022/07/26 12:10:21;;;;;;;5.53;1.53;;;20.30;99.90;;;;;;5038864;28;20455;-72
2022/07/26 12:13:10;;;;;;;3.67;1.70;;;20.40;99.90;;;;;;5045365;28;20542;-72
2022/07/26 12:15:59;;;;;;;3.53;1.37;;;20.40;99.90;;;;;;5043994;28;20451;-72
2022/07/26 12:18:51;;;;;;;3.93;1.60;;;20.50;99.90;;;;;;5042755;28;20455;-72
2022/07/26 12:21:42;;;;;;;4.53;1.53;;;20.50;99.90;;;;;;5036169;28;20989;-72
2022/07/26 12:24:45;;;;;;;5.20;1.70;;;20.50;99.90;;;;;;5045116;28;20613;-72
2022/07/26 12:27:45;;;;;;;3.90;1.47;;;20.60;99.90;;;;;;5042661;28;20493;-72
2022/07/26 12:30:35;;;;;;;4.17;1.53;;;20.70;99.90;;;;;;5038101;28;20510;-72
2022/07/26 12:33:24;;;;;;;2.83;1.30;;;20.70;99.90;;;;;;5047649;28;20468;-71
2022/07/26 12:36:20;;;;;;;3.43;1.30;;;20.70;99.90;;;;;;5050128;28;20443;-72
2022/07/26 12:39:20;;;;;;;3.13;1.27;;;20.80;99.90;;;;;;5041811;28;20500;-71
2022/07/26 12:42:27;;;;;;;3.80;1.40;;;20.90;99.90;;;;;;5045073;28;20444;-72
2022/07/26 12:45:25;;;;;;;3.40;1.37;;;21.10;99.90;;;;;;5041025;28;20572;-73
2022/07/26 12:48:13;;;;;;;3.67;1.53;;;21.20;99.90;;;;;;5039163;28;20447;-72
2022/07/26 12:51:01;;;;;;;4.37;1.50;;;21.20;99.90;;;;;;5038902;28;20577;-72
2022/07/26 12:53:50;;;;;;;4.47;1.30;;;21.10;99.90;;;;;;5032625;28;22878;-73
2022/07/26 12:56:38;;;;;;;1.87;1.27;;;21.00;99.90;;;;;;5033431;28;21124;-72
2022/07/26 12:59:27;;;;;;;3.10;1.40;;;21.10;99.90;;;;;;5030125;28;20450;-70
2022/07/26 13:02:18;;;;;;;3.17;1.60;;;21.10;99.90;;;;;;5033505;28;20966;-72
2022/07/26 13:05:08;;;;;;;4.03;1.40;;;21.10;99.90;;;;;;5031194;28;20462;-71
2022/07/26 13:07:56;;;;;;;3.50;1.40;;;21.30;99.90;;;;;;5036305;28;20509;-72
2022/07/26 13:10:45;;;;;;;2.90;1.50;;;21.40;99.90;;;;;;5034301;28;20488;-72
2022/07/26 13:13:33;;;;;;;2.73;1.10;;;21.50;99.90;;;;;;5035679;28;20456;-71
2022/07/26 13:16:21;;;;;;;4.13;1.53;;;21.50;99.90;;;;;;5035424;28;20541;-73
2022/07/26 13:19:12;;;;;;;3.10;1.47;;;21.70;99.90;;;;;;5041889;28;20450;-72
2022/07/26 13:22:01;;;;;;;4.00;1.47;;;21.80;99.90;;;;;;5039684;28;21041;-72
2022/07/26 13:24:52;;;;;;;4.70;1.60;;;21.90;99.90;;;;;;5043288;28;20990;-72
2022/07/26 13:27:40;;;;;;;3.43;1.40;;;21.90;99.90;;;;;;5040141;28;20442;-72
2022/07/26 13:30:32;;;;;;;3.97;1.50;;;21.90;99.90;;;;;;5041750;28;20459;-72
2022/07/26 13:33:28;;;;;;;2.83;1.07;;;21.90;99.90;;;;;;5038240;28;20478;-72
2022/07/26 13:36:20;;;;;;;1.67;1.03;;;21.90;99.90;;;;;;5078022;22;20497;-74
2022/07/26 13:39:08;;;;;;;3.13;1.43;;;22.00;99.90;;;;;;5077598;28;20530;-74
2022/07/26 13:41:56;;;;;;;2.40;1.30;;;22.00;99.90;;;;;;5075130;28;20998;-74
2022/07/26 13:44:45;;;;;;;3.40;1.30;;;22.00;99.90;;;;;;5081537;28;20478;-74
2022/07/26 13:47:33;;;;;;;2.97;1.30;;;22.20;99.90;;;;;;5074848;28;20437;-73
2022/07/26 13:50:21;;;;;;;4.60;1.43;;;22.40;99.90;;;;;;5077779;28;20445;-74
2022/07/26 13:53:11;;;;;;;3.17;1.50;;;22.30;99.90;;;;;;5076812;28;20956;-74
2022/07/26 13:56:00;;;;;;;5.30;1.43;;;22.10;99.90;;;;;;5076854;28;20497;-74
2022/07/26 13:58:48;;;;;;;3.33;1.40;;;22.00;99.90;;;;;;5082105;28;20455;-74
2022/07/26 14:01:36;;;;;;;3.17;1.17;;;21.90;99.90;;;;;;5083993;28;20441;-74
2022/07/26 14:04:32;;;;;;;1.73;1.30;;;21.90;99.90;;;;;;5080802;28;20457;-74
2022/07/26 14:07:20;;;;;;;2.80;1.30;;;21.70;99.90;;;;;;5082454;28;20944;-74
2022/07/26 14:10:11;;;;;;;3.73;1.30;;;21.60;99.90;;;;;;5077794;28;20484;-74
2022/07/26 14:12:59;;;;;;;1.70;1.00;;;21.70;99.90;;;;;;5081975;28;20519;-74
2022/07/26 14:15:48;;;;;;;2.70;1.20;;;21.70;99.90;;;;;;5075463;28;20553;-74
2022/07/26 14:18:36;;;;;;;2.30;1.20;;;21.90;99.90;;;;;;5085742;28;20891;-74
2022/07/26 14:21:26;;;;;;;2.40;1.37;;;22.00;99.90;;;;;;5087911;28;21093;-74
2022/07/26 14:24:14;;;;;;;3.17;1.37;;;22.20;99.90;;;;;;5085935;28;20445;-74
2022/07/26 14:27:09;;;;;;;3.07;1.10;;;22.30;99.90;;;;;;5102790;28;20461;-74
2022/07/26 14:29:57;;;;;;;2.10;1.43;;;22.20;99.90;;;;;;5101893;28;20444;-73
2022/07/26 14:32:50;;;;;;;2.17;1.00;;;22.10;99.90;;;;;;5102470;28;20530;-74
2022/07/26 14:35:40;;;;;;;1.97;1.20;;;22.00;99.90;;;;;;5103852;28;20504;-74
2022/07/26 14:38:28;;;;;;;4.53;1.30;;;22.50;99.90;;;;;;5093590;28;20507;-74
2022/07/26 14:41:17;;;;;;;2.17;1.10;;;23.30;99.90;;;;;;5099230;28;20448;-73
2022/07/26 14:44:08;;;;;;;3.40;1.40;;;24.00;99.90;;;;;;5096389;28;20476;-77
2022/07/26 14:46:57;;;;;;;3.20;1.30;;;23.60;99.90;;;;;;5090086;28;20449;-74
2022/07/26 14:49:47;;;;;;;3.53;1.50;;;23.30;99.90;;;;;;5079135;28;20544;-72
2022/07/26 14:52:37;;;;;;;5.00;1.60;;;23.10;99.90;;;;;;5085550;28;20610;-71
2022/07/26 14:55:31;;;;;;;2.40;1.23;;;23.10;99.90;;;;;;5081170;28;20477;-72